Time;durP1;ratioP1;P1;durP2;ratioP2;P2;SDS_P1;SDS_P2;PMS_P1;PMS_P2;Temp;Humidity;BMP_temperature;BMP_pressure;BME280_temperature;BME280_humidity;BME280_pressure;Samples;Min_cycle;Max_cycle;Signal;HPM_P1;HPM_P2
2023/08/17 00:01:46;;;;;;;4.67;3.40;;;18.90;99.90;;;;;;5120087;27;20484;-84
2023/08/17 00:04:13;;;;;;;7.53;3.33;;;19.00;99.90;;;;;;5119643;27;20482;-84
2023/08/17 00:06:39;;;;;;;4.37;3.10;;;18.90;99.90;;;;;;5119868;27;20435;-83
2023/08/17 00:09:06;;;;;;;4.73;2.70;;;19.00;99.90;;;;;;5119773;27;20923;-84
2023/08/17 00:11:33;;;;;;;5.67;3.40;;;19.00;99.90;;;;;;5119771;27;20442;-84
2023/08/17 00:14:02;;;;;;;4.30;3.70;;;18.90;99.90;;;;;;5120441;27;20443;-84
2023/08/17 00:16:30;;;;;;;3.73;3.27;;;19.00;99.90;;;;;;5120757;27;20453;-84
2023/08/17 00:18:57;;;;;;;6.40;3.80;;;18.90;99.90;;;;;;5119662;27;20449;-83
2023/08/17 00:21:23;;;;;;;4.70;3.30;;;18.90;99.90;;;;;;5119859;27;20569;-83
2023/08/17 00:23:50;;;;;;;7.80;2.77;;;18.90;99.90;;;;;;5116523;28;20445;-84
2023/08/17 00:26:18;;;;;;;3.60;3.30;;;18.90;99.90;;;;;;5116814;28;20450;-84
2023/08/17 00:28:45;;;;;;;9.10;3.30;;;18.90;99.90;;;;;;5116674;28;20446;-84
2023/08/17 00:31:13;;;;;;;4.00;3.10;;;18.90;99.90;;;;;;5116733;28;20492;-84
2023/08/17 00:33:39;;;;;;;4.67;3.00;;;18.90;99.90;;;;;;5116563;28;20443;-84
2023/08/17 00:36:06;;;;;;;5.50;3.47;;;18.90;99.90;;;;;;5116504;28;20469;-84
2023/08/17 00:38:33;;;;;;;4.60;2.70;;;18.80;99.90;;;;;;5116587;28;20446;-84
2023/08/17 00:41:00;;;;;;;4.07;3.67;;;18.80;99.90;;;;;;5116351;28;20479;-84
2023/08/17 00:43:26;;;;;;;4.50;3.70;;;18.80;99.90;;;;;;5116066;28;20936;-84
2023/08/17 00:45:54;;;;;;;4.17;3.17;;;18.80;99.90;;;;;;5116321;28;20459;-83
2023/08/17 00:48:23;;;;;;;6.27;3.97;;;18.70;99.90;;;;;;5116046;28;20939;-84
2023/08/17 00:50:51;;;;;;;6.37;4.13;;;18.80;99.90;;;;;;5116596;28;20451;-84
2023/08/17 00:53:19;;;;;;;4.57;3.20;;;18.70;99.90;;;;;;5117036;28;20886;-83
2023/08/17 00:55:46;;;;;;;4.53;3.50;;;18.70;99.90;;;;;;5116097;28;20463;-84
2023/08/17 00:58:13;;;;;;;5.93;3.77;;;18.70;99.90;;;;;;5116099;28;20443;-84
2023/08/17 01:00:40;;;;;;;4.50;3.20;;;18.70;99.90;;;;;;5115766;28;20478;-84
2023/08/17 01:03:07;;;;;;;8.77;3.40;;;18.70;99.90;;;;;;5115740;28;20471;-84
2023/08/17 01:05:36;;;;;;;5.30;3.10;;;18.70;99.90;;;;;;5115932;28;20465;-84
2023/08/17 01:08:03;;;;;;;6.23;3.90;;;18.70;99.90;;;;;;5116020;27;20450;-84
2023/08/17 01:10:36;;;;;;;3.73;3.27;;;18.70;99.90;;;;;;5116130;28;20852;-84
2023/08/17 01:13:10;;;;;;;4.23;2.80;;;18.70;99.90;;;;;;5116113;28;20423;-84
2023/08/17 01:15:41;;;;;;;5.60;3.00;;;18.70;99.90;;;;;;5115746;28;20462;-84
2023/08/17 01:18:17;;;;;;;5.50;3.60;;;18.70;99.90;;;;;;5115801;28;20427;-84
2023/08/17 01:20:47;;;;;;;7.37;3.57;;;18.60;99.90;;;;;;5115833;28;20823;-84
2023/08/17 01:23:15;;;;;;;4.60;2.80;;;18.60;99.90;;;;;;5115715;28;20435;-84
2023/08/17 01:25:42;;;;;;;4.17;3.10;;;18.60;99.90;;;;;;5115563;28;20466;-84
2023/08/17 01:28:09;;;;;;;9.40;4.27;;;18.60;99.90;;;;;;5115667;28;20443;-84
2023/08/17 01:30:42;;;;;;;6.10;3.80;;;18.60;99.90;;;;;;5115515;28;20841;-84
2023/08/17 01:33:10;;;;;;;3.13;2.43;;;18.60;99.90;;;;;;5115031;28;20408;-84
2023/08/17 01:35:42;;;;;;;6.80;3.80;;;18.60;99.90;;;;;;5114372;28;20463;-84
2023/08/17 01:38:15;;;;;;;3.63;3.30;;;18.50;99.90;;;;;;5115129;28;20435;-84
2023/08/17 01:40:44;;;;;;;3.60;3.30;;;18.60;99.90;;;;;;5115245;28;20469;-84
2023/08/17 01:43:12;;;;;;;9.63;4.00;;;18.60;99.90;;;;;;5115312;27;20451;-84
2023/08/17 01:45:39;;;;;;;5.70;3.97;;;18.60;99.90;;;;;;5115186;28;20456;-84
2023/08/17 01:48:06;;;;;;;6.80;3.50;;;18.60;99.90;;;;;;5114989;28;20817;-84
2023/08/17 01:50:33;;;;;;;5.13;3.07;;;18.60;99.90;;;;;;5115170;28;20450;-84
2023/08/17 01:53:00;;;;;;;6.47;3.80;;;18.70;99.90;;;;;;5115100;28;20513;-84
2023/08/17 01:55:27;;;;;;;5.63;4.10;;;18.70;99.90;;;;;;5115013;28;20470;-84
2023/08/17 01:57:55;;;;;;;3.93;2.90;;;18.80;99.90;;;;;;5114912;28;20476;-84
2023/08/17 02:00:21;;;;;;;6.80;4.10;;;18.80;99.90;;;;;;5114886;28;20490;-84
2023/08/17 02:02:48;;;;;;;3.60;3.30;;;18.80;99.90;;;;;;5114711;28;20479;-85
2023/08/17 02:05:15;;;;;;;4.70;3.10;;;18.80;99.90;;;;;;5114733;28;20467;-84
2023/08/17 02:07:42;;;;;;;4.20;3.53;;;18.90;99.90;;;;;;5114792;28;20443;-84
2023/08/17 02:10:09;;;;;;;7.43;3.57;;;18.90;99.90;;;;;;5114753;28;20446;-84
2023/08/17 02:12:36;;;;;;;5.63;4.47;;;18.90;99.90;;;;;;5114792;28;20445;-84
2023/08/17 02:15:05;;;;;;;7.73;3.63;;;18.90;99.90;;;;;;5114640;28;20482;-84
2023/08/17 02:17:31;;;;;;;5.23;3.70;;;18.90;99.90;;;;;;5114633;28;20439;-84
2023/08/17 02:19:58;;;;;;;5.10;3.30;;;19.00;99.90;;;;;;5114922;28;20808;-84
2023/08/17 02:22:25;;;;;;;6.97;3.77;;;18.90;99.90;;;;;;5114091;28;20471;-84
2023/08/17 02:24:51;;;;;;;4.20;2.43;;;18.90;99.90;;;;;;5114104;28;20471;-85
2023/08/17 02:27:18;;;;;;;6.70;3.57;;;18.90;99.90;;;;;;5114486;28;20443;-84
2023/08/17 02:29:45;;;;;;;4.57;3.10;;;19.00;99.90;;;;;;5114390;28;20445;-84
2023/08/17 02:32:13;;;;;;;3.43;2.97;;;19.00;99.90;;;;;;5114315;28;20439;-84
2023/08/17 02:34:40;;;;;;;4.73;3.20;;;19.00;99.90;;;;;;5114298;28;20837;-84
2023/08/17 02:37:06;;;;;;;4.27;3.07;;;19.00;99.90;;;;;;5114392;28;20451;-84
2023/08/17 02:39:33;;;;;;;4.93;3.33;;;18.90;99.90;;;;;;5114261;28;20442;-84
2023/08/17 02:42:15;;;;;;;3.20;2.27;;;19.00;99.90;;;;;;5114186;28;20979;-85
2023/08/17 02:44:41;;;;;;;4.90;2.77;;;19.00;99.90;;;;;;5113808;28;20817;-84
2023/08/17 02:47:08;;;;;;;9.70;3.00;;;19.00;99.90;;;;;;5113698;28;20786;-84
2023/08/17 02:49:36;;;;;;;3.77;3.37;;;19.00;99.90;;;;;;5114300;28;20446;-85
2023/08/17 02:52:03;;;;;;;3.93;2.83;;;19.00;99.90;;;;;;5114117;28;20457;-85
2023/08/17 02:54:31;;;;;;;5.40;3.07;;;19.00;99.90;;;;;;5114046;28;20474;-84
2023/08/17 02:56:58;;;;;;;7.63;3.60;;;19.00;99.90;;;;;;5113798;28;20503;-85
2023/08/17 02:59:24;;;;;;;6.57;3.43;;;19.00;99.90;;;;;;5114117;28;20446;-84
2023/08/17 03:01:51;;;;;;;4.83;3.27;;;19.10;99.90;;;;;;5113607;28;20991;-85
2023/08/17 03:04:18;;;;;;;7.13;3.40;;;19.00;99.90;;;;;;5113724;28;20482;-85
2023/08/17 03:06:46;;;;;;;6.03;3.67;;;19.00;99.90;;;;;;5113798;28;20802;-85
2023/08/17 03:09:13;;;;;;;7.80;4.60;;;19.00;99.90;;;;;;5113644;28;20962;-86
2023/08/17 03:11:39;;;;;;;9.03;4.13;;;19.00;99.90;;;;;;5113572;28;20935;-85
2023/08/17 03:14:06;;;;;;;14.97;4.47;;;19.10;99.90;;;;;;5113898;28;20445;-85
2023/08/17 03:16:33;;;;;;;7.93;4.07;;;19.00;99.90;;;;;;5113749;28;20815;-85
2023/08/17 03:19:00;;;;;;;7.37;3.43;;;19.00;99.90;;;;;;5113630;28;20451;-85
2023/08/17 03:21:26;;;;;;;8.13;4.43;;;19.00;99.90;;;;;;5113535;28;20486;-85
2023/08/17 03:23:54;;;;;;;6.47;3.70;;;19.00;99.90;;;;;;5113438;28;20446;-85
2023/08/17 03:26:21;;;;;;;4.63;3.37;;;18.90;99.90;;;;;;5113808;28;20454;-85
2023/08/17 03:28:48;;;;;;;5.80;4.20;;;19.00;99.90;;;;;;5113844;28;20837;-85
2023/08/17 03:31:15;;;;;;;10.80;4.43;;;18.90;99.90;;;;;;5113523;28;20935;-85
2023/08/17 03:33:42;;;;;;;5.87;4.03;;;19.00;99.90;;;;;;5113852;28;20465;-85
2023/08/17 03:36:08;;;;;;;6.47;3.83;;;19.00;99.90;;;;;;5113756;28;20471;-85
2023/08/17 03:38:35;;;;;;;7.57;4.00;;;18.90;99.90;;;;;;5113776;28;20454;-85
2023/08/17 03:41:04;;;;;;;7.50;4.00;;;18.90;99.90;;;;;;5113470;28;20836;-85
2023/08/17 03:43:30;;;;;;;8.50;5.43;;;18.90;99.90;;;;;;5113634;28;20924;-85
2023/08/17 03:45:57;;;;;;;11.37;3.70;;;18.90;99.90;;;;;;5113299;28;21042;-85
2023/08/17 03:48:24;;;;;;;5.23;4.20;;;18.90;99.90;;;;;;5113465;28;20443;-85
2023/08/17 03:50:52;;;;;;;6.10;3.13;;;18.90;99.90;;;;;;5113358;28;20424;-85
2023/08/17 03:53:19;;;;;;;9.63;5.07;;;18.90;99.90;;;;;;5113577;28;20439;-85
2023/08/17 03:55:47;;;;;;;8.57;3.90;;;18.90;99.90;;;;;;5113573;28;20459;-85
2023/08/17 03:58:15;;;;;;;6.40;4.00;;;18.90;99.90;;;;;;5115592;28;20491;-85
2023/08/17 04:00:42;;;;;;;15.50;4.50;;;18.90;99.90;;;;;;5117559;28;20445;-85
2023/08/17 04:03:09;;;;;;;7.53;3.27;;;18.90;99.90;;;;;;5116930;28;20470;-85
2023/08/17 04:05:36;;;;;;;5.10;2.60;;;18.90;99.90;;;;;;5117334;28;20462;-85
2023/08/17 04:08:03;;;;;;;5.50;3.27;;;18.90;99.90;;;;;;5117260;27;20446;-85
2023/08/17 04:10:30;;;;;;;15.23;3.87;;;18.90;99.90;;;;;;5117213;28;20439;-85
2023/08/17 04:12:57;;;;;;;7.93;3.77;;;18.80;99.90;;;;;;5117435;28;20441;-85
2023/08/17 04:15:25;;;;;;;6.07;3.60;;;18.80;99.90;;;;;;5117144;28;20458;-85
2023/08/17 04:17:52;;;;;;;9.30;3.50;;;18.90;99.90;;;;;;5117211;28;20450;-85
2023/08/17 04:20:19;;;;;;;4.03;3.17;;;18.90;99.90;;;;;;5117134;28;20442;-85
2023/08/17 04:22:46;;;;;;;6.20;3.83;;;18.80;99.90;;;;;;5116928;28;20474;-85
2023/08/17 04:25:13;;;;;;;8.20;3.40;;;18.90;99.90;;;;;;5116544;28;20967;-85
2023/08/17 04:27:40;;;;;;;7.53;4.20;;;18.90;99.90;;;;;;5116643;28;20445;-85
2023/08/17 04:30:08;;;;;;;7.23;3.30;;;18.80;99.90;;;;;;5116506;28;20443;-85
2023/08/17 04:32:36;;;;;;;7.10;3.57;;;18.80;99.90;;;;;;5116762;28;20447;-85
2023/08/17 04:35:03;;;;;;;7.73;3.80;;;18.80;99.90;;;;;;5116262;28;20478;-85
2023/08/17 04:37:30;;;;;;;6.90;3.20;;;18.80;99.90;;;;;;5116404;28;20940;-85
2023/08/17 04:39:57;;;;;;;5.43;3.30;;;18.80;99.90;;;;;;5116651;28;20454;-85
2023/08/17 04:42:24;;;;;;;5.80;3.50;;;18.80;99.90;;;;;;5116496;27;20489;-85
2023/08/17 04:44:51;;;;;;;7.50;4.37;;;18.80;99.90;;;;;;5116359;27;20458;-85
2023/08/17 04:47:18;;;;;;;5.33;3.33;;;18.80;99.90;;;;;;5116504;28;20450;-85
2023/08/17 04:49:46;;;;;;;6.80;3.23;;;18.80;99.90;;;;;;5116455;28;20449;-86
2023/08/17 04:52:13;;;;;;;16.43;3.83;;;18.80;99.90;;;;;;5116500;28;20446;-86
2023/08/17 04:54:39;;;;;;;6.30;3.20;;;18.80;99.90;;;;;;5116279;28;20463;-85
2023/08/17 04:57:06;;;;;;;8.50;4.03;;;18.80;99.90;;;;;;5116261;28;20432;-85
2023/08/17 04:59:33;;;;;;;11.10;4.17;;;18.80;99.90;;;;;;5116292;28;20450;-85
2023/08/17 05:01:59;;;;;;;5.33;3.47;;;18.80;99.90;;;;;;5116401;28;20486;-85
2023/08/17 05:04:26;;;;;;;6.50;3.57;;;18.80;99.90;;;;;;5115793;27;20492;-85
2023/08/17 05:06:54;;;;;;;5.73;3.83;;;18.80;99.90;;;;;;5116113;28;20956;-86
2023/08/17 05:09:21;;;;;;;5.67;3.70;;;18.90;99.90;;;;;;5115821;28;20803;-85
2023/08/17 05:11:48;;;;;;;14.97;5.27;;;18.90;99.90;;;;;;5116006;28;20933;-85
2023/08/17 05:14:15;;;;;;;5.17;2.70;;;18.90;99.90;;;;;;5115928;28;20463;-86
2023/08/17 05:16:41;;;;;;;6.90;3.40;;;18.90;99.90;;;;;;5115961;27;20446;-85
2023/08/17 05:19:08;;;;;;;5.00;3.33;;;18.90;99.90;;;;;;5115973;27;20449;-86
2023/08/17 05:21:36;;;;;;;8.40;3.80;;;18.90;99.90;;;;;;5115902;28;20490;-86
2023/08/17 05:24:04;;;;;;;3.53;2.70;;;18.90;99.90;;;;;;5115459;28;20458;-85
2023/08/17 05:26:31;;;;;;;5.80;2.80;;;18.90;99.90;;;;;;5115519;28;20931;-85
2023/08/17 05:28:58;;;;;;;5.33;3.10;;;18.90;99.90;;;;;;5115402;28;20563;-86
2023/08/17 05:31:25;;;;;;;5.13;3.30;;;19.00;99.90;;;;;;5115754;28;20443;-86
2023/08/17 05:33:52;;;;;;;7.10;3.13;;;19.00;99.90;;;;;;5115736;28;20447;-85
2023/08/17 05:36:18;;;;;;;6.93;2.73;;;18.90;99.90;;;;;;5115660;28;20447;-85
2023/08/17 05:38:45;;;;;;;6.80;4.10;;;19.00;99.90;;;;;;5115599;28;20438;-85
2023/08/17 05:41:13;;;;;;;12.00;3.57;;;18.90;99.90;;;;;;5115474;28;20434;-86
2023/08/17 05:43:40;;;;;;;7.13;4.03;;;18.90;99.90;;;;;;5115474;28;20447;-86
2023/08/17 05:46:07;;;;;;;5.77;3.80;;;18.80;99.90;;;;;;5115394;28;20463;-86
2023/08/17 05:48:33;;;;;;;4.90;3.90;;;18.80;99.90;;;;;;5115510;28;20450;-85
2023/08/17 05:51:00;;;;;;;8.00;3.50;;;18.90;99.90;;;;;;5115344;28;20836;-85
2023/08/17 05:53:27;;;;;;;7.17;3.77;;;18.80;99.90;;;;;;5115403;27;20441;-85
2023/08/17 05:55:54;;;;;;;22.97;3.47;;;18.90;99.90;;;;;;5115278;28;20459;-85
2023/08/17 05:58:22;;;;;;;9.27;3.50;;;18.90;99.90;;;;;;5115321;28;20447;-85
2023/08/17 06:00:49;;;;;;;4.13;2.80;;;18.90;99.90;;;;;;5115159;28;20542;-85
2023/08/17 06:03:16;;;;;;;9.93;4.00;;;18.90;99.90;;;;;;5114717;28;21049;-85
2023/08/17 06:05:43;;;;;;;5.57;3.27;;;18.90;99.90;;;;;;5114939;28;20463;-85
2023/08/17 06:08:09;;;;;;;6.87;3.50;;;18.90;99.90;;;;;;5115025;28;20451;-85
2023/08/17 06:10:36;;;;;;;6.33;3.07;;;19.00;99.90;;;;;;5114822;28;21008;-85
2023/08/17 06:13:03;;;;;;;6.17;3.77;;;19.00;99.90;;;;;;5115021;28;20420;-85
2023/08/17 06:15:31;;;;;;;4.87;2.87;;;19.00;99.90;;;;;;5114832;28;20467;-85
2023/08/17 06:17:58;;;;;;;7.00;3.07;;;19.10;99.90;;;;;;5114883;28;20435;-85
2023/08/17 06:20:25;;;;;;;3.80;2.73;;;19.10;99.90;;;;;;5114442;28;20448;-85
2023/08/17 06:22:52;;;;;;;9.33;4.10;;;19.20;99.90;;;;;;5114545;28;20987;-85
2023/08/17 06:25:18;;;;;;;6.37;3.50;;;19.20;99.90;;;;;;5114699;28;20459;-85
2023/08/17 06:27:45;;;;;;;4.73;2.63;;;19.20;99.90;;;;;;5114591;28;20439;-85
2023/08/17 06:30:13;;;;;;;5.13;3.27;;;19.30;99.90;;;;;;5114487;28;20455;-86
2023/08/17 06:32:41;;;;;;;6.07;3.60;;;19.40;99.90;;;;;;5114605;28;20450;-86
2023/08/17 06:35:08;;;;;;;8.97;3.47;;;19.40;99.90;;;;;;5114357;28;20463;-85
2023/08/17 06:37:35;;;;;;;6.27;4.20;;;19.50;99.90;;;;;;5114939;28;20447;-85
2023/08/17 06:40:02;;;;;;;5.77;3.23;;;19.50;99.90;;;;;;5114531;28;20443;-85
2023/08/17 06:42:29;;;;;;;7.23;3.90;;;19.60;99.90;;;;;;5114442;28;20529;-85
2023/08/17 06:44:56;;;;;;;6.80;3.87;;;19.60;99.90;;;;;;5114433;28;20828;-85
2023/08/17 06:47:23;;;;;;;4.40;3.07;;;19.70;99.90;;;;;;5114550;28;20449;-85
2023/08/17 06:49:51;;;;;;;4.77;3.50;;;19.80;99.90;;;;;;5114401;28;20461;-86
2023/08/17 06:52:18;;;;;;;7.97;4.17;;;19.90;99.90;;;;;;5114473;28;20465;-86
2023/08/17 06:54:45;;;;;;;3.97;3.10;;;19.90;99.90;;;;;;5114379;28;20516;-86
2023/08/17 06:57:11;;;;;;;5.77;3.50;;;20.00;99.90;;;;;;5114388;28;20443;-86
2023/08/17 06:59:38;;;;;;;4.97;3.10;;;20.20;99.90;;;;;;5114388;28;20469;-86
2023/08/17 07:02:05;;;;;;;4.87;3.33;;;20.10;99.90;;;;;;5114473;28;20841;-85
2023/08/17 07:04:32;;;;;;;4.40;3.40;;;20.10;99.90;;;;;;5113761;28;20477;-85
2023/08/17 07:07:00;;;;;;;4.63;4.07;;;20.10;99.90;;;;;;5113949;28;20449;-86
2023/08/17 07:09:28;;;;;;;5.10;4.00;;;20.20;99.90;;;;;;5114255;28;20450;-86
2023/08/17 07:11:54;;;;;;;9.00;3.77;;;20.20;99.90;;;;;;5114404;28;20442;-86
2023/08/17 07:14:21;;;;;;;7.20;4.00;;;20.20;99.90;;;;;;5114132;28;20451;-86
2023/08/17 07:16:48;;;;;;;6.90;4.30;;;20.20;99.90;;;;;;5114061;28;20431;-86
2023/08/17 07:19:15;;;;;;;4.10;3.60;;;20.20;99.90;;;;;;5114294;28;20442;-86
2023/08/17 07:21:41;;;;;;;5.27;3.30;;;20.30;99.90;;;;;;5114396;28;20812;-88
2023/08/17 07:24:17;;;;;;;11.50;4.50;;;20.20;99.90;;;;;;5114106;28;20440;-86
2023/08/17 07:26:44;;;;;;;5.73;4.10;;;20.30;99.90;;;;;;5113966;28;20429;-86
2023/08/17 07:29:11;;;;;;;10.27;5.20;;;20.30;99.90;;;;;;5113922;28;20861;-86
2023/08/17 07:31:37;;;;;;;8.07;4.50;;;20.30;99.90;;;;;;5115025;28;21026;-86
2023/08/17 07:34:05;;;;;;;6.60;4.13;;;20.30;99.90;;;;;;5118342;28;20438;-85
2023/08/17 07:36:32;;;;;;;7.47;3.90;;;20.30;99.90;;;;;;5120043;28;20466;-86
2023/08/17 07:38:58;;;;;;;5.17;4.23;;;20.40;99.90;;;;;;5120250;27;20446;-85
2023/08/17 07:41:27;;;;;;;6.13;4.13;;;20.40;99.90;;;;;;5119202;28;20986;-86
2023/08/17 07:43:54;;;;;;;7.53;4.70;;;20.50;99.90;;;;;;5118046;28;20489;-86
2023/08/17 07:46:20;;;;;;;3.93;3.20;;;20.50;99.90;;;;;;5117834;27;20455;-86
2023/08/17 07:48:47;;;;;;;5.90;3.87;;;20.70;99.90;;;;;;5117765;27;20949;-87
2023/08/17 07:51:14;;;;;;;11.50;4.87;;;20.80;99.90;;;;;;5117554;28;21108;-88
2023/08/17 07:53:41;;;;;;;7.87;4.50;;;20.80;99.90;;;;;;5117783;28;20449;-87
2023/08/17 07:56:08;;;;;;;5.47;4.60;;;21.00;99.90;;;;;;5117437;28;21005;-87
2023/08/17 07:58:36;;;;;;;4.50;3.47;;;21.20;99.90;;;;;;5117885;28;20823;-87
2023/08/17 08:01:03;;;;;;;4.97;3.80;;;21.30;99.90;;;;;;5117650;28;20806;-88
2023/08/17 08:03:29;;;;;;;7.37;3.50;;;21.40;99.90;;;;;;5117523;28;20833;-88
2023/08/17 08:05:56;;;;;;;3.63;3.30;;;21.30;99.90;;;;;;5117937;28;20470;-87
2023/08/17 08:08:23;;;;;;;6.00;3.87;;;21.30;99.90;;;;;;5117848;28;20446;-88
2023/08/17 08:10:50;;;;;;;5.60;4.40;;;21.30;99.90;;;;;;5118278;27;20446;-87
2023/08/17 08:13:16;;;;;;;4.87;3.13;;;21.30;99.90;;;;;;5117723;28;20430;-88
2023/08/17 08:15:44;;;;;;;6.37;3.47;;;21.30;99.90;;;;;;5117925;28;20842;-88
2023/08/17 08:18:11;;;;;;;2.63;2.40;;;21.40;99.90;;;;;;5117660;28;20823;-87
2023/08/17 08:20:39;;;;;;;6.43;3.63;;;21.30;99.90;;;;;;5117357;28;20935;-88
2023/08/17 08:23:06;;;;;;;4.37;3.10;;;21.40;99.90;;;;;;5117452;28;20488;-88
2023/08/17 08:25:32;;;;;;;4.20;3.10;;;21.50;99.90;;;;;;5117525;28;20470;-88
2023/08/17 08:27:59;;;;;;;3.40;3.10;;;21.80;99.90;;;;;;5117335;28;20943;-88
2023/08/17 08:30:26;;;;;;;4.93;2.90;;;22.00;99.90;;;;;;5118021;28;20476;-88
2023/08/17 08:32:55;;;;;;;4.20;3.40;;;22.20;99.90;;;;;;5117651;28;20443;-88
2023/08/17 08:35:24;;;;;;;5.40;2.70;;;22.30;99.90;;;;;;5117396;28;20474;-88
2023/08/17 08:37:50;;;;;;;5.10;3.03;;;22.50;99.90;;;;;;5118148;28;20443;-88
2023/08/17 08:40:20;;;;;;;5.17;3.63;;;22.60;99.90;;;;;;5118784;28;20208;-87
2023/08/17 08:42:46;;;;;;;4.73;3.47;;;22.70;99.90;;;;;;5117498;27;20315;-89
2023/08/17 08:45:13;;;;;;;4.93;3.50;;;22.70;99.90;;;;;;5117326;28;20238;-89
2023/08/17 08:47:42;;;;;;;4.43;2.83;;;22.70;99.90;;;;;;5117852;28;20200;-89
2023/08/17 08:50:17;;;;;;;3.70;3.30;;;22.80;99.90;;;;;;5117479;28;20200;-89
2023/08/17 08:52:52;;;;;;;4.40;3.40;;;22.90;99.90;;;;;;5117856;28;20191;-89
2023/08/17 08:55:22;;;;;;;2.57;2.33;;;23.00;99.90;;;;;;5118346;28;20230;-89
2023/08/17 08:57:50;;;;;;;2.90;2.70;;;23.10;99.90;;;;;;5118438;28;20204;-89
2023/08/17 09:00:18;;;;;;;3.70;3.30;;;23.00;99.90;;;;;;5120054;28;20211;-89
2023/08/17 09:02:45;;;;;;;4.22;3.60;;;23.20;99.90;;;;;;5129861;28;20224;-89
2023/08/17 09:05:14;;;;;;;3.43;2.50;;;23.30;99.90;;;;;;5121498;28;20223;-90
2023/08/17 09:07:43;;;;;;;3.38;3.08;;;23.50;99.90;;;;;;5121682;28;20223;-89
2023/08/17 09:10:10;;;;;;;3.35;2.50;;;23.80;99.90;;;;;;5125520;28;20200;-90
2023/08/17 09:12:38;;;;;;;3.65;2.90;;;23.90;99.90;;;;;;5126487;28;20224;-89
2023/08/17 09:15:05;;;;;;;2.60;2.40;;;24.10;99.90;;;;;;5125904;28;20227;-89
2023/08/17 09:17:35;;;;;;;4.50;3.35;;;24.30;99.90;;;;;;5123051;28;20189;-89
2023/08/17 09:20:02;;;;;;;2.33;2.13;;;24.30;99.90;;;;;;5123065;28;20665;-89
2023/08/17 09:22:39;;;;;;;1.80;1.70;;;24.30;99.90;;;;;;5121114;28;20704;-89
2023/08/17 09:25:07;;;;;;;3.58;2.35;;;24.50;99.90;;;;;;5118765;28;20244;-89
2023/08/17 09:27:34;;;;;;;2.00;1.88;;;24.70;99.90;;;;;;5118118;28;20204;-90
2023/08/17 09:30:05;;;;;;;2.20;2.10;;;24.80;99.90;;;;;;5117683;28;20200;-89
2023/08/17 09:32:32;;;;;;;3.50;2.70;;;24.90;99.90;;;;;;5117682;27;20666;-90
2023/08/17 09:35:01;;;;;;;2.25;2.05;;;25.00;99.90;;;;;;5117475;27;20273;-90
2023/08/17 09:37:28;;;;;;;2.80;2.00;;;25.10;99.90;;;;;;5117773;28;20206;-90
2023/08/17 09:39:57;;;;;;;2.75;2.30;;;25.20;99.90;;;;;;5118386;28;20200;-90
2023/08/17 09:42:25;;;;;;;2.38;2.10;;;25.20;99.90;;;;;;5117776;28;20205;-90
2023/08/17 09:44:52;;;;;;;2.20;2.10;;;25.30;99.90;;;;;;5117285;28;20228;-90
2023/08/17 09:47:21;;;;;;;2.33;2.13;;;25.30;99.90;;;;;;5116217;28;20200;-90
2023/08/17 09:49:49;;;;;;;2.33;2.13;;;25.50;99.90;;;;;;5116515;28;20570;-89
2023/08/17 09:52:16;;;;;;;3.03;2.35;;;25.60;99.90;;;;;;5115915;28;20225;-90
2023/08/17 09:54:44;;;;;;;2.92;2.72;;;25.80;99.90;;;;;;5115088;28;20217;-89
2023/08/17 09:57:13;;;;;;;1.70;1.60;;;25.80;99.90;;;;;;5115456;28;20203;-90
2023/08/17 09:59:40;;;;;;;2.95;1.88;;;25.90;99.90;;;;;;5115573;28;20688;-90
2023/08/17 10:02:15;;;;;;;2.13;1.50;;;26.00;99.90;;;;;;5115691;28;20197;-90
2023/08/17 10:04:42;;;;;;;2.78;2.58;;;26.20;99.90;;;;;;5115568;28;20234;-89
2023/08/17 10:07:11;;;;;;;2.30;2.10;;;26.00;99.90;;;;;;5115620;28;20203;-90
2023/08/17 10:09:43;;;;;;;2.00;1.90;;;26.10;99.90;;;;;;5115301;28;20204;-90
2023/08/17 10:12:16;;;;;;;2.47;2.30;;;26.20;99.90;;;;;;5115125;28;20196;-90
2023/08/17 10:14:50;;;;;;;3.05;2.15;;;26.20;99.90;;;;;;5115237;28;20225;-89
2023/08/17 10:17:23;;;;;;;2.80;2.60;;;26.20;99.90;;;;;;5115051;28;20634;-90
2023/08/17 10:19:53;;;;;;;2.42;2.22;;;26.30;99.90;;;;;;5115038;28;20220;-90
2023/08/17 10:22:26;;;;;;;3.40;3.15;;;26.10;99.90;;;;;;5115560;28;20224;-89
2023/08/17 10:24:55;;;;;;;2.47;2.30;;;26.20;99.90;;;;;;5114666;28;20242;-89
2023/08/17 10:27:23;;;;;;;2.10;2.00;;;26.30;99.90;;;;;;5115172;28;20207;-89
2023/08/17 10:29:52;;;;;;;2.60;2.40;;;26.20;99.90;;;;;;5115122;28;20197;-88
2023/08/17 10:32:19;;;;;;;2.90;2.22;;;26.20;99.90;;;;;;5119092;28;20204;-88
2023/08/17 10:34:46;;;;;;;2.42;2.22;;;26.40;99.90;;;;;;5120927;28;20221;-87
2023/08/17 10:37:14;;;;;;;2.72;2.33;;;26.40;99.90;;;;;;5118286;28;20658;-89
2023/08/17 10:39:46;;;;;;;2.47;2.38;;;26.40;99.90;;;;;;5118527;28;20550;-89
2023/08/17 10:42:14;;;;;;;3.00;2.75;;;26.30;99.90;;;;;;5114987;28;20272;-89
2023/08/17 10:44:45;;;;;;;2.92;2.55;;;26.40;99.90;;;;;;5114398;28;20220;-89
2023/08/17 10:47:22;;;;;;;2.90;2.65;;;26.50;99.90;;;;;;5114970;28;20195;-88
2023/08/17 10:49:49;;;;;;;2.10;1.90;;;26.50;99.90;;;;;;5115103;28;20610;-89
2023/08/17 10:52:25;;;;;;;2.08;1.80;;;26.50;99.90;;;;;;5114772;28;20204;-88
2023/08/17 10:54:51;;;;;;;2.03;1.88;;;26.60;99.90;;;;;;5114667;28;20221;-88
2023/08/17 10:57:32;;;;;;;2.33;2.10;;;26.80;99.90;;;;;;5114542;28;20211;-88
2023/08/17 11:00:16;;;;;;;3.20;2.22;;;27.10;99.90;;;;;;5114705;28;20207;-88
2023/08/17 11:02:45;;;;;;;2.65;2.38;;;27.20;99.90;;;;;;5114471;28;20599;-89
2023/08/17 11:05:13;;;;;;;1.92;1.73;;;27.40;99.90;;;;;;5114281;28;20692;-89
2023/08/17 11:07:41;;;;;;;2.50;2.30;;;27.60;99.90;;;;;;5114356;28;20204;-89
2023/08/17 11:10:29;;;;;;;2.72;2.40;;;27.80;99.90;;;;;;5114367;28;20201;-88
2023/08/17 11:12:59;;;;;;;2.30;2.20;;;27.80;99.90;;;;;;5114614;28;20189;-88
2023/08/17 11:15:37;;;;;;;1.95;1.85;;;27.80;99.90;;;;;;5114740;28;20216;-88
2023/08/17 11:18:05;;;;;;;3.35;2.08;;;27.90;99.90;;;;;;5114512;28;20224;-89
2023/08/17 11:20:32;;;;;;;4.97;3.35;;;27.90;99.90;;;;;;5114919;28;20211;-88
2023/08/17 11:22:59;;;;;;;2.80;2.53;;;27.70;99.90;;;;;;5114376;28;20254;-88
2023/08/17 11:25:26;;;;;;;2.50;2.30;;;27.60;99.90;;;;;;5114523;28;20216;-88
2023/08/17 11:27:53;;;;;;;2.40;2.20;;;27.50;99.90;;;;;;5114647;28;20203;-88
2023/08/17 11:30:22;;;;;;;2.80;1.90;;;27.50;99.90;;;;;;5114765;28;20203;-88
2023/08/17 11:32:50;;;;;;;3.17;2.90;;;27.50;99.90;;;;;;5113956;28;20669;-88
2023/08/17 11:35:17;;;;;;;1.90;1.80;;;27.50;99.90;;;;;;5114269;28;20216;-88
2023/08/17 11:37:44;;;;;;;1.67;1.58;;;27.60;99.90;;;;;;5113875;28;20200;-88
2023/08/17 11:40:12;;;;;;;3.28;2.40;;;27.70;99.90;;;;;;5114203;28;20250;-88
2023/08/17 11:42:39;;;;;;;2.40;2.25;;;27.70;99.90;;;;;;5114337;28;20201;-88
2023/08/17 11:45:08;;;;;;;2.30;2.10;;;27.70;99.90;;;;;;5114152;28;20240;-88
2023/08/17 11:47:36;;;;;;;1.73;1.63;;;27.60;99.90;;;;;;5113871;28;20760;-88
2023/08/17 11:50:05;;;;;;;2.42;2.22;;;27.50;99.90;;;;;;5113886;28;20196;-88
2023/08/17 11:52:32;;;;;;;2.90;2.63;;;27.50;99.90;;;;;;5114063;28;20617;-88
2023/08/17 11:54:59;;;;;;;6.15;2.65;;;27.40;99.90;;;;;;5113942;28;20219;-88
2023/08/17 11:57:26;;;;;;;2.70;2.50;;;27.40;99.90;;;;;;5113874;28;20207;-88
2023/08/17 11:59:55;;;;;;;4.00;2.35;;;27.30;99.90;;;;;;5114017;28;20196;-88
2023/08/17 12:02:22;;;;;;;2.45;2.25;;;27.30;99.90;;;;;;5113563;28;20204;-88
2023/08/17 12:04:49;;;;;;;2.10;1.95;;;27.20;99.90;;;;;;5113906;28;20228;-88
2023/08/17 12:07:18;;;;;;;2.17;2.08;;;27.00;99.90;;;;;;5114167;28;20205;-88
2023/08/17 12:09:45;;;;;;;2.40;2.20;;;26.90;99.90;;;;;;5113917;28;20209;-88
2023/08/17 12:12:12;;;;;;;3.47;2.15;;;26.80;99.90;;;;;;5114162;28;20200;-88
2023/08/17 12:14:42;;;;;;;3.65;2.20;;;26.70;99.90;;;;;;5113654;28;20221;-87
2023/08/17 12:17:08;;;;;;;3.10;2.17;;;26.50;99.90;;;;;;5114561;28;20200;-88
2023/08/17 12:19:35;;;;;;;2.40;2.00;;;26.40;99.90;;;;;;5117175;28;20204;-89
2023/08/17 12:22:03;;;;;;;2.65;2.45;;;26.30;99.90;;;;;;5117134;28;20205;-88
2023/08/17 12:24:31;;;;;;;2.85;2.10;;;26.20;99.90;;;;;;5117306;28;20231;-88
2023/08/17 12:26:58;;;;;;;2.70;2.50;;;26.10;99.90;;;;;;5117582;28;20208;-88
2023/08/17 12:29:25;;;;;;;2.20;2.00;;;26.00;99.90;;;;;;5117220;28;20204;-89
2023/08/17 12:31:53;;;;;;;2.40;2.20;;;25.90;99.90;;;;;;5117442;28;20198;-88
2023/08/17 12:34:19;;;;;;;3.28;2.83;;;25.80;99.90;;;;;;5116864;28;20223;-88
2023/08/17 12:36:46;;;;;;;3.67;2.90;;;25.80;99.90;;;;;;5117309;28;20200;-88
2023/08/17 12:39:13;;;;;;;3.33;2.42;;;25.80;99.90;;;;;;5117342;28;20204;-88
2023/08/17 12:41:41;;;;;;;2.67;2.47;;;25.70;99.90;;;;;;5116916;28;20192;-88
2023/08/17 12:44:11;;;;;;;2.67;2.47;;;25.70;99.90;;;;;;5117193;28;20212;-89
2023/08/17 12:46:38;;;;;;;2.00;1.90;;;25.60;99.90;;;;;;5117096;28;20232;-88
2023/08/17 12:49:05;;;;;;;4.50;2.42;;;25.50;99.90;;;;;;5116994;27;20205;-88